createdAt,value
2019-02-25T00:02:20.850Z,10.90
2019-02-25T00:04:49.534Z,10.80
2019-02-25T00:07:18.171Z,10.80
2019-02-25T00:09:46.740Z,10.80
2019-02-25T00:12:16.171Z,10.70
2019-02-25T00:14:44.748Z,10.70
2019-02-25T00:17:13.519Z,10.70
2019-02-25T00:19:42.162Z,10.60
2019-02-25T00:22:10.726Z,10.70
2019-02-25T00:24:39.329Z,10.60
2019-02-25T00:27:07.906Z,10.60
2019-02-25T00:29:36.493Z,10.50
2019-02-25T00:32:05.203Z,10.40
2019-02-25T00:34:34.023Z,10.60
2019-02-25T00:37:02.649Z,10.40
2019-02-25T00:39:31.324Z,10.40
2019-02-25T00:41:59.960Z,10.40
2019-02-25T00:44:28.674Z,10.50
2019-02-25T00:46:57.333Z,10.50
2019-02-25T00:49:25.982Z,10.50
2019-02-25T00:51:54.780Z,10.40
2019-02-25T00:54:23.379Z,10.40
2019-02-25T00:56:52.060Z,10.30
2019-02-25T00:59:20.624Z,10.20
2019-02-25T01:01:49.333Z,10.10
2019-02-25T01:04:18.069Z,10.20
2019-02-25T01:06:46.801Z,10.20
2019-02-25T01:09:15.379Z,10.20
2019-02-25T01:11:43.991Z,10.10
2019-02-25T01:14:12.657Z,10.00
2019-02-25T01:16:41.227Z,10.00
2019-02-25T01:19:09.850Z,9.90
2019-02-25T01:21:38.491Z,9.70
2019-02-25T01:24:07.147Z,9.80
2019-02-25T01:26:35.757Z,9.90
2019-02-25T01:29:04.385Z,9.70
2019-02-25T01:31:32.995Z,9.70
2019-02-25T01:34:01.903Z,9.70
2019-02-25T01:36:30.547Z,9.70
2019-02-25T01:38:59.137Z,9.70
2019-02-25T01:41:28.038Z,9.70
2019-02-25T01:43:56.733Z,9.70
2019-02-25T01:46:25.389Z,9.70
2019-02-25T01:48:53.997Z,9.80
2019-02-25T01:51:22.614Z,9.80
2019-02-25T01:53:51.317Z,9.80
2019-02-25T01:56:19.955Z,9.70
2019-02-25T01:58:49.301Z,9.60
2019-02-25T02:01:17.925Z,9.70
2019-02-25T02:03:46.636Z,9.80
2019-02-25T02:06:15.263Z,9.70
2019-02-25T02:08:44.001Z,9.70
2019-02-25T02:11:12.683Z,9.80
2019-02-25T02:13:41.487Z,9.70
2019-02-25T02:16:10.306Z,9.70
2019-02-25T02:18:38.899Z,9.70
2019-02-25T02:21:07.551Z,9.60
2019-02-25T02:23:36.157Z,9.60
2019-02-25T02:26:04.942Z,9.60
2019-02-25T02:28:33.541Z,9.50
2019-02-25T02:31:02.112Z,9.50
2019-02-25T02:33:30.749Z,9.50
2019-02-25T02:35:59.263Z,9.50
2019-02-25T02:38:27.964Z,9.40
2019-02-25T02:40:58.035Z,9.40
2019-02-25T02:43:26.621Z,9.30
2019-02-25T02:46:04.079Z,9.30
2019-02-25T02:48:41.052Z,9.30
2019-02-25T02:51:09.873Z,9.30
2019-02-25T02:53:38.665Z,9.30
2019-02-25T02:56:07.338Z,9.30
2019-02-25T02:58:36.102Z,9.30
2019-02-25T03:01:04.821Z,9.30
2019-02-25T03:03:33.408Z,9.20
2019-02-25T03:06:02.100Z,9.20
2019-02-25T03:08:30.815Z,9.10
2019-02-25T03:11:27.344Z,9.10
2019-02-25T03:21:26.929Z,9.00
2019-02-25T03:27:36.136Z,8.90
2019-02-25T04:17:59.532Z,9.20
2019-02-25T04:20:39.082Z,9.10
2019-02-25T05:10:18.881Z,8.60
2019-02-25T05:12:51.868Z,8.30
2019-02-25T05:15:22.067Z,8.30
2019-02-25T05:17:50.658Z,8.30
2019-02-25T05:20:19.333Z,8.40
2019-02-25T05:22:47.919Z,8.50
2019-02-25T05:25:16.709Z,8.50
2019-02-25T05:27:45.569Z,8.40
2019-02-25T05:30:17.282Z,8.40
2019-02-25T05:32:46.045Z,8.50
2019-02-25T05:35:14.750Z,8.40
2019-02-25T05:37:43.444Z,8.30
2019-02-25T05:40:17.771Z,8.10
2019-02-25T05:42:46.445Z,8.10
2019-02-25T05:45:15.737Z,7.90
2019-02-25T05:47:44.402Z,7.80
2019-02-25T05:50:19.686Z,7.90
2019-02-25T05:52:48.402Z,8.00
2019-02-25T05:55:17.407Z,7.70
2019-02-25T05:57:46.051Z,7.90
2019-02-25T06:00:20.975Z,7.90
2019-02-25T06:02:49.703Z,8.10
2019-02-25T06:05:19.893Z,8.10
2019-02-25T06:07:48.560Z,8.10
2019-02-25T06:10:17.287Z,8.00
2019-02-25T06:12:47.103Z,8.10
2019-02-25T06:15:20.799Z,8.00
2019-02-25T06:17:52.413Z,8.00
2019-02-25T06:20:22.929Z,7.80
2019-02-25T06:22:51.577Z,7.80
2019-02-25T06:25:20.285Z,7.70
2019-02-25T06:27:49.019Z,7.80
2019-02-25T06:30:22.628Z,7.80
2019-02-25T06:32:51.414Z,7.90
2019-02-25T06:35:20.319Z,7.80
2019-02-25T06:37:48.963Z,7.70
2019-02-25T06:40:18.886Z,7.70
2019-02-25T06:42:47.662Z,7.80
2019-02-25T06:45:33.891Z,7.80
2019-02-25T06:48:25.156Z,7.90
2019-02-25T06:50:55.122Z,7.90
2019-02-25T06:53:23.687Z,7.90
2019-02-25T06:55:52.369Z,7.90
2019-02-25T06:58:23.004Z,7.90
2019-02-25T07:00:51.490Z,7.90
2019-02-25T07:03:20.102Z,7.90
2019-02-25T07:05:56.367Z,7.90
2019-02-25T07:08:26.675Z,7.90
2019-02-25T07:10:59.577Z,7.80
2019-02-25T07:13:46.267Z,8.00
2019-02-25T07:16:22.528Z,8.10
2019-02-25T07:19:00.359Z,8.20
2019-02-25T07:21:45.660Z,8.10
2019-02-25T07:24:21.691Z,8.00
2019-02-25T07:27:07.175Z,8.00
2019-02-25T07:29:40.459Z,8.40
2019-02-25T07:32:26.922Z,8.40
2019-02-25T07:34:59.785Z,8.30
2019-02-25T07:37:42.290Z,8.30
2019-02-25T07:40:28.902Z,8.30
2019-02-25T07:43:04.686Z,8.40
2019-02-25T07:45:35.003Z,8.50
2019-02-25T07:51:05.951Z,8.80
2019-02-25T07:53:45.142Z,8.80
2019-02-25T07:56:26.120Z,8.80
2019-02-25T07:58:59.144Z,9.00
2019-02-25T08:01:41.112Z,9.30
2019-02-25T08:04:20.417Z,9.70
2019-02-25T08:06:50.657Z,10.00
2019-02-25T08:09:26.557Z,10.00
2019-02-25T08:12:08.990Z,9.80
2019-02-25T08:14:45.134Z,9.70
2019-02-25T08:17:21.034Z,9.40
2019-02-25T08:19:52.322Z,9.50
2019-02-25T08:22:25.414Z,9.60
2019-02-25T08:25:10.738Z,9.80
2019-02-25T08:30:45.182Z,10.00
2019-02-25T08:33:24.416Z,10.40
2019-02-25T08:36:13.883Z,10.80
2019-02-25T08:38:58.957Z,11.20
2019-02-25T08:41:29.126Z,11.40
2019-02-25T08:44:14.504Z,11.60
2019-02-25T08:46:44.851Z,11.80
2019-02-25T08:49:15.130Z,12.00
2019-02-25T08:51:43.868Z,12.20
2019-02-25T08:54:15.584Z,12.40
2019-02-25T08:56:50.354Z,12.60
2019-02-25T08:59:19.405Z,12.70
2019-02-25T09:01:54.935Z,12.60
2019-02-25T09:04:23.634Z,12.70
2019-02-25T09:06:52.342Z,12.90
2019-02-25T09:09:20.943Z,13.10
2019-02-25T09:11:49.502Z,13.40
2019-02-25T09:14:18.189Z,13.80
2019-02-25T09:16:46.882Z,13.80
2019-02-25T09:19:15.540Z,14.10
2019-02-25T09:21:44.245Z,14.40
2019-02-25T09:24:12.979Z,14.60
2019-02-25T09:26:41.543Z,14.80
2019-02-25T09:29:10.170Z,14.90
2019-02-25T09:31:38.826Z,15.20
2019-02-25T09:34:07.564Z,15.70
2019-02-25T09:36:36.160Z,16.40
2019-02-25T09:39:07.882Z,16.60
2019-02-25T09:41:36.550Z,16.40
2019-02-25T09:44:05.300Z,16.60
2019-02-25T09:46:34.030Z,16.80
2019-02-25T09:49:02.746Z,17.40
2019-02-25T09:51:31.439Z,17.60
2019-02-25T09:54:00.218Z,17.80
2019-02-25T09:56:28.868Z,17.80
2019-02-25T09:58:57.432Z,17.80
2019-02-25T10:01:26.056Z,17.70
2019-02-25T10:03:54.647Z,17.90
2019-02-25T10:06:23.282Z,18.30
2019-02-25T10:08:51.986Z,18.50
2019-02-25T10:11:23.422Z,18.80
2019-02-25T10:13:53.726Z,19.30
2019-02-25T10:16:22.548Z,19.70
2019-02-25T10:18:51.295Z,19.80
2019-02-25T10:21:19.920Z,20.00
2019-02-25T10:23:48.553Z,20.20
2019-02-25T10:26:17.148Z,20.50
2019-02-25T10:28:45.794Z,20.50
2019-02-25T10:31:15.319Z,20.80
2019-02-25T10:33:47.067Z,21.10
2019-02-25T10:36:15.358Z,21.50
2019-02-25T10:38:44.041Z,21.80
2019-02-25T10:41:12.684Z,22.10
2019-02-25T10:43:41.268Z,22.40
2019-02-25T10:46:11.703Z,22.70
2019-02-25T10:48:40.332Z,22.70
2019-02-25T10:51:09.377Z,22.50
2019-02-25T10:53:39.328Z,22.70
2019-02-25T10:56:11.550Z,22.60
2019-02-25T10:58:40.174Z,22.60
2019-02-25T11:01:13.405Z,22.80
2019-02-25T11:03:39.211Z,23.10
2019-02-25T11:06:07.990Z,23.00
2019-02-25T11:08:38.975Z,22.90
2019-02-25T11:11:09.350Z,23.00
2019-02-25T11:13:37.988Z,23.00
2019-02-25T11:16:06.746Z,23.00
2019-02-25T11:18:35.369Z,23.30
2019-02-25T11:21:05.916Z,23.30
2019-02-25T11:23:34.526Z,23.20
2019-02-25T11:26:03.258Z,23.30
2019-02-25T11:28:33.875Z,23.80
2019-02-25T11:31:02.586Z,23.90
2019-02-25T11:33:32.585Z,24.00
2019-02-25T11:36:10.526Z,24.00
2019-02-25T11:38:37.457Z,23.80
2019-02-25T11:41:12.449Z,24.00
2019-02-25T11:43:41.129Z,24.30
2019-02-25T11:46:10.236Z,24.20
2019-02-25T11:48:38.940Z,24.40
2019-02-25T11:51:07.619Z,24.40
2019-02-25T11:53:36.358Z,24.90
2019-02-25T11:56:05.127Z,25.00
2019-02-25T11:58:33.706Z,24.60
2019-02-25T12:01:02.566Z,24.60
2019-02-25T12:03:31.196Z,24.50
2019-02-25T12:05:59.836Z,24.60
2019-02-25T12:08:30.057Z,24.50
2019-02-25T12:10:58.626Z,24.60
2019-02-25T12:13:27.365Z,24.70
2019-02-25T12:15:56.042Z,25.10
2019-02-25T12:18:24.674Z,25.10
2019-02-25T12:20:53.352Z,25.50
2019-02-25T12:23:22.087Z,25.10
2019-02-25T12:25:50.747Z,25.00
2019-02-25T12:28:19.478Z,25.40
2019-02-25T12:30:48.234Z,25.90
2019-02-25T12:33:16.878Z,25.90
2019-02-25T12:35:45.607Z,26.20
2019-02-25T12:38:14.256Z,26.50
2019-02-25T12:40:42.992Z,26.70
2019-02-25T12:43:11.716Z,26.80
2019-02-25T12:45:40.403Z,26.90
2019-02-25T12:48:09.234Z,26.80
2019-02-25T12:50:37.835Z,26.70
2019-02-25T12:53:06.564Z,26.40
2019-02-25T12:55:35.291Z,26.60
2019-02-25T12:58:03.914Z,26.60
2019-02-25T13:00:32.655Z,27.10
2019-02-25T13:03:01.393Z,27.10
2019-02-25T13:05:30.083Z,27.50
2019-02-25T13:07:58.672Z,27.40
2019-02-25T13:10:27.366Z,27.60
2019-02-25T13:12:55.953Z,27.90
2019-02-25T13:15:25.137Z,27.80
2019-02-25T13:17:53.816Z,27.70
2019-02-25T13:20:22.484Z,27.10
2019-02-25T13:22:51.380Z,27.30
2019-02-25T13:25:30.041Z,27.00
2019-02-25T13:27:59.449Z,27.10
2019-02-25T13:30:28.997Z,27.40
2019-02-25T13:32:57.628Z,27.60
2019-02-25T13:35:26.262Z,27.50
2019-02-25T13:37:54.833Z,27.50
2019-02-25T13:40:23.468Z,27.90
2019-02-25T13:42:52.598Z,28.20
2019-02-25T13:45:24.762Z,28.10
2019-02-25T13:47:53.422Z,28.20
2019-02-25T13:50:22.157Z,27.60
2019-02-25T13:52:51.850Z,27.70
2019-02-25T13:55:22.298Z,28.10
2019-02-25T13:57:51.049Z,28.00
2019-02-25T14:00:27.472Z,27.60
2019-02-25T14:02:56.210Z,27.60
2019-02-25T14:05:25.213Z,27.40
2019-02-25T14:07:54.015Z,26.70
2019-02-25T14:10:22.763Z,26.00
2019-02-25T14:12:51.461Z,25.30
2019-02-25T14:15:22.841Z,24.70
2019-02-25T14:17:51.649Z,24.50
2019-02-25T14:20:24.546Z,24.70
2019-02-25T14:22:53.218Z,24.70
2019-02-25T14:25:31.507Z,25.20
2019-02-25T14:28:02.595Z,25.20
2019-02-25T14:30:33.293Z,24.80
2019-02-25T14:33:01.030Z,24.80
2019-02-25T14:35:31.928Z,24.80
2019-02-25T14:38:07.606Z,24.80
2019-02-25T14:40:33.217Z,25.10
2019-02-25T14:43:04.030Z,25.10
2019-02-25T14:45:34.440Z,24.70
2019-02-25T14:48:05.342Z,24.70
2019-02-25T14:50:32.987Z,24.70
2019-02-25T14:53:03.903Z,24.80
2019-02-25T14:55:32.781Z,24.60
2019-02-25T14:58:04.520Z,24.20
2019-02-25T15:00:34.450Z,24.40
2019-02-25T15:03:02.091Z,24.70
2019-02-25T15:05:30.793Z,24.70
2019-02-25T15:07:59.767Z,24.60
2019-02-25T15:10:31.356Z,24.60
2019-02-25T15:13:01.310Z,24.70
2019-02-25T15:15:29.383Z,24.80
2019-02-25T15:17:58.183Z,24.80
2019-02-25T15:20:28.930Z,24.70
2019-02-25T15:22:57.458Z,24.80
2019-02-25T15:25:29.267Z,24.80
2019-02-25T15:27:56.344Z,24.70
2019-02-25T15:30:30.744Z,24.70
2019-02-25T15:33:00.235Z,24.70
2019-02-25T15:35:32.314Z,24.70
2019-02-25T15:38:00.651Z,24.70
2019-02-25T15:40:29.578Z,24.60
2019-02-25T15:43:10.436Z,24.50
2019-02-25T15:45:40.654Z,24.40
2019-02-25T15:48:15.118Z,24.10
2019-02-25T15:50:46.058Z,23.80
2019-02-25T15:53:16.172Z,23.70
2019-02-25T15:56:10.327Z,23.80
2019-02-25T15:58:39.923Z,23.80
2019-02-25T16:01:09.458Z,23.30
2019-02-25T16:03:38.740Z,23.40
2019-02-25T16:06:10.585Z,23.00
2019-02-25T16:08:39.299Z,22.70
2019-02-25T16:11:08.190Z,22.50
2019-02-25T16:13:37.814Z,22.40
2019-02-25T16:19:01.124Z,22.30
2019-02-25T16:21:30.486Z,22.00
2019-02-25T16:24:01.516Z,21.70
2019-02-25T16:26:29.471Z,21.60
2019-02-25T16:28:59.602Z,21.40
2019-02-25T16:31:29.167Z,21.30
2019-02-25T16:33:58.648Z,21.30
2019-02-25T16:36:28.283Z,21.00
2019-02-25T16:38:58.579Z,20.80
2019-02-25T16:41:32.250Z,20.60
2019-02-25T16:43:59.572Z,20.70
2019-02-25T16:46:28.504Z,20.60
2019-02-25T16:48:57.472Z,20.40
2019-02-25T16:51:27.604Z,20.30
2019-02-25T16:53:56.584Z,20.20
2019-02-25T16:56:25.624Z,20.20
2019-02-25T16:58:56.604Z,20.10
2019-02-25T17:01:26.175Z,20.00
2019-02-25T17:03:55.229Z,19.90
2019-02-25T17:06:23.931Z,19.70
2019-02-25T17:08:53.441Z,19.40
2019-02-25T17:11:22.952Z,19.40
2019-02-25T17:13:53.087Z,19.30
2019-02-25T17:16:24.156Z,19.10
2019-02-25T17:19:00.661Z,19.00
2019-02-25T17:21:28.877Z,19.00
2019-02-25T17:23:58.236Z,18.90
2019-02-25T17:26:27.851Z,18.70
2019-02-25T17:28:56.933Z,18.70
2019-02-25T17:31:25.696Z,18.60
2019-02-25T17:33:55.769Z,18.50
2019-02-25T17:36:24.831Z,18.40
2019-02-25T17:38:53.848Z,18.20
2019-02-25T17:41:22.591Z,18.10
2019-02-25T17:43:51.226Z,18.10
2019-02-25T17:46:20.160Z,18.00
2019-02-25T17:48:49.030Z,17.80
2019-02-25T17:51:18.546Z,17.80
2019-02-25T17:53:48.692Z,17.80
2019-02-25T17:56:20.367Z,17.70
2019-02-25T17:58:49.101Z,17.60
2019-02-25T18:01:19.700Z,17.60
2019-02-25T18:03:48.315Z,17.50
2019-02-25T18:06:16.948Z,17.40
2019-02-25T18:08:45.743Z,17.20
2019-02-25T18:11:15.761Z,17.10
2019-02-25T18:13:46.654Z,17.00
2019-02-25T18:16:16.795Z,17.10
2019-02-25T18:18:45.844Z,16.90
2019-02-25T18:21:15.951Z,16.70
2019-02-25T18:23:44.615Z,16.70
2019-02-25T18:26:14.937Z,16.50
2019-02-25T18:28:44.284Z,16.40
2019-02-25T18:31:14.090Z,16.50
2019-02-25T18:33:44.072Z,16.40
2019-02-25T18:36:13.235Z,16.30
2019-02-25T18:38:44.040Z,16.20
2019-02-25T18:41:12.585Z,16.10
2019-02-25T18:43:42.837Z,16.00
2019-02-25T18:46:11.705Z,15.90
2019-02-25T18:48:49.201Z,15.90
2019-02-25T18:51:20.071Z,16.00
2019-02-25T18:53:48.986Z,15.80
2019-02-25T18:56:40.255Z,15.70
2019-02-25T18:59:09.576Z,15.70
2019-02-25T19:01:36.872Z,15.70
2019-02-25T19:04:13.087Z,15.80
2019-02-25T19:06:51.655Z,15.70
2019-02-25T19:09:21.242Z,15.70
2019-02-25T19:11:52.968Z,15.70
2019-02-25T19:14:22.055Z,15.50
2019-02-25T19:16:55.058Z,15.40
2019-02-25T19:31:52.779Z,15.30
2019-02-25T20:02:10.903Z,14.90
2019-02-25T20:19:10.115Z,14.80
2019-02-25T20:21:43.568Z,14.60
2019-02-25T20:24:21.298Z,14.50
2019-02-25T20:27:06.741Z,14.70
2019-02-25T20:29:31.320Z,14.70
2019-02-25T20:32:12.683Z,14.50
2019-02-25T20:34:54.513Z,14.30
2019-02-25T20:37:13.138Z,14.50
2019-02-25T20:39:45.070Z,14.30
2019-02-25T20:42:21.413Z,14.30
2019-02-25T20:44:52.875Z,14.30
2019-02-25T20:47:25.550Z,14.10
2019-02-25T20:50:00.613Z,14.00
2019-02-25T20:52:30.115Z,14.00
2019-02-25T20:54:58.793Z,13.90
2019-02-25T20:57:29.423Z,13.90
2019-02-25T20:59:57.954Z,13.80
2019-02-25T21:02:26.602Z,13.80
2019-02-25T21:04:55.318Z,13.80
2019-02-25T21:07:25.091Z,13.80
2019-02-25T21:09:56.299Z,13.70
2019-02-25T21:12:24.892Z,13.80
2019-02-25T21:14:53.606Z,13.70
2019-02-25T21:17:22.203Z,13.60
2019-02-25T21:23:02.951Z,13.60
2019-02-25T21:25:29.084Z,13.60
2019-02-25T21:28:02.306Z,13.70
2019-02-25T21:30:31.283Z,13.60
2019-02-25T21:33:02.936Z,13.60
2019-02-25T21:35:35.456Z,13.60
2019-02-25T21:38:09.646Z,13.60
2019-02-25T21:40:46.247Z,13.60
2019-02-25T21:43:39.249Z,13.50
2019-02-25T21:45:58.732Z,13.60
2019-02-25T21:48:29.636Z,13.50
2019-02-25T21:51:00.138Z,13.60
2019-02-25T21:53:28.332Z,13.60
2019-02-25T21:55:59.199Z,13.50
2019-02-25T21:58:27.730Z,13.60
2019-02-25T22:00:56.772Z,13.60
2019-02-25T22:03:25.329Z,13.60
2019-02-25T22:05:55.723Z,13.60
2019-02-25T22:08:26.478Z,13.40
2019-02-25T22:10:54.676Z,13.50
2019-02-25T22:13:23.445Z,13.40
2019-02-25T22:22:39.250Z,13.20
2019-02-25T22:52:07.485Z,13.00
2019-02-25T23:08:32.893Z,12.30
2019-02-25T23:12:15.620Z,12.20
2019-02-25T23:42:00.631Z,12.00
2019-02-25T23:54:16.168Z,11.50
2019-02-25T23:57:04.346Z,11.40
2019-02-25T23:59:57.744Z,11.30
